createdAt,value
2022-08-03T00:01:44.203Z,14.73
2022-08-03T00:04:12.641Z,14.59
2022-08-03T00:06:40.660Z,14.51
2022-08-03T00:09:08.909Z,14.53
2022-08-03T00:11:37.518Z,14.49
2022-08-03T00:14:06.191Z,14.40
2022-08-03T00:16:36.021Z,14.44
2022-08-03T00:19:04.240Z,14.36
2022-08-03T00:21:32.254Z,14.40
2022-08-03T00:24:01.031Z,14.35
2022-08-03T00:26:29.012Z,14.39
2022-08-03T00:28:56.961Z,14.41
2022-08-03T00:31:35.218Z,14.36
2022-08-03T00:34:14.387Z,14.21
2022-08-03T00:36:42.361Z,14.21
2022-08-03T00:39:10.631Z,14.09
2022-08-03T00:41:38.599Z,14.21
2022-08-03T00:44:06.694Z,14.19
2022-08-03T00:46:34.689Z,14.10
2022-08-03T00:49:03.496Z,14.08
2022-08-03T00:51:33.171Z,14.01
2022-08-03T00:54:01.162Z,13.96
2022-08-03T00:56:29.172Z,13.98
2022-08-03T00:58:58.800Z,13.82
2022-08-03T01:01:26.959Z,13.97
2022-08-03T01:04:01.138Z,13.94
2022-08-03T01:06:37.718Z,13.96
2022-08-03T01:09:13.810Z,14.04
2022-08-03T01:12:00.010Z,14.02
2022-08-03T01:14:35.438Z,13.94
2022-08-03T01:17:25.961Z,13.89
2022-08-03T01:20:13.631Z,13.81
2022-08-03T01:23:24.328Z,13.80
2022-08-03T01:26:07.569Z,13.73
2022-08-03T01:28:59.384Z,13.82
2022-08-03T01:31:31.150Z,13.72
2022-08-03T01:34:01.775Z,13.64
2022-08-03T01:36:35.377Z,13.75
2022-08-03T01:39:09.287Z,13.76
2022-08-03T01:41:41.432Z,13.83
2022-08-03T01:44:30.279Z,13.95
2022-08-03T01:47:01.406Z,13.88
2022-08-03T01:49:30.248Z,13.88
2022-08-03T01:52:04.871Z,13.84
2022-08-03T01:54:34.267Z,13.76
2022-08-03T01:57:02.799Z,13.81
2022-08-03T01:59:31.948Z,13.86
2022-08-03T02:02:28.126Z,13.67
2022-08-03T02:04:50.381Z,13.66
2022-08-03T02:07:18.648Z,13.59
2022-08-03T02:09:49.373Z,13.04
2022-08-03T02:12:17.665Z,13.45
2022-08-03T02:14:47.109Z,13.35
2022-08-03T02:17:17.127Z,13.54
2022-08-03T02:19:45.910Z,13.31
2022-08-03T02:22:14.871Z,13.39
2022-08-03T02:24:44.424Z,13.46
2022-08-03T02:27:21.557Z,13.45
2022-08-03T02:29:52.608Z,13.42
2022-08-03T02:32:25.994Z,13.44
2022-08-03T02:34:56.376Z,13.42
2022-08-03T02:37:27.934Z,13.32
2022-08-03T02:39:59.491Z,13.40
2022-08-03T02:42:28.084Z,13.44
2022-08-03T02:44:58.709Z,13.48
2022-08-03T02:47:29.262Z,13.47
2022-08-03T02:50:18.705Z,13.46
2022-08-03T02:52:47.382Z,13.42
2022-08-03T02:55:16.326Z,13.35
2022-08-03T02:57:44.826Z,12.99
2022-08-03T03:00:27.190Z,13.47
2022-08-03T03:02:59.583Z,13.46
2022-08-03T03:05:55.856Z,13.44
2022-08-03T03:08:25.744Z,13.36
2022-08-03T03:10:55.815Z,13.32
2022-08-03T03:13:24.632Z,13.46
2022-08-03T03:15:53.680Z,13.39
2022-08-03T03:18:23.519Z,13.25
2022-08-03T03:20:53.207Z,13.35
2022-08-03T03:23:23.213Z,13.27
2022-08-03T03:25:51.641Z,13.15
2022-08-03T03:28:19.665Z,12.98
2022-08-03T03:30:53.088Z,13.17
2022-08-03T03:33:23.688Z,13.14
2022-08-03T03:35:52.897Z,13.16
2022-08-03T03:38:21.320Z,13.12
2022-08-03T03:40:49.794Z,13.07
2022-08-03T03:43:18.604Z,13.07
2022-08-03T03:45:47.033Z,13.13
2022-08-03T03:48:15.086Z,13.29
2022-08-03T03:50:45.050Z,13.29
2022-08-03T03:53:14.113Z,13.44
2022-08-03T03:55:59.254Z,13.24
2022-08-03T03:58:30.575Z,13.32
2022-08-03T04:00:58.620Z,13.19
2022-08-03T04:03:26.653Z,13.26
2022-08-03T04:06:13.687Z,13.21
2022-08-03T04:09:14.088Z,13.18
2022-08-03T04:11:44.828Z,13.25
2022-08-03T04:14:16.278Z,13.31
2022-08-03T04:16:47.886Z,13.39
2022-08-03T04:19:23.071Z,13.45
2022-08-03T04:21:56.906Z,13.50
2022-08-03T04:24:26.707Z,13.59
2022-08-03T04:26:55.093Z,13.54
2022-08-03T04:29:23.869Z,13.84
2022-08-03T04:31:52.128Z,14.07
2022-08-03T04:34:20.230Z,14.16
2022-08-03T04:36:50.386Z,14.22
2022-08-03T04:39:25.432Z,14.30
2022-08-03T04:42:06.893Z,14.27
2022-08-03T04:44:39.136Z,14.56
2022-08-03T04:47:07.438Z,14.83
2022-08-03T04:49:37.607Z,15.00
2022-08-03T04:52:06.197Z,15.14
2022-08-03T04:54:42.141Z,15.53
2022-08-03T04:57:10.118Z,15.65
2022-08-03T04:59:58.211Z,16.22
2022-08-03T05:02:31.143Z,16.73
2022-08-03T05:04:59.308Z,17.64
2022-08-03T05:07:35.873Z,18.41
2022-08-03T05:10:15.167Z,19.35
2022-08-03T05:12:44.874Z,20.11
2022-08-03T05:15:13.335Z,21.08
2022-08-03T05:17:41.479Z,21.43
2022-08-03T05:20:10.973Z,22.00
2022-08-03T05:22:39.045Z,22.31
2022-08-03T05:25:08.993Z,22.20
2022-08-03T05:27:37.065Z,22.57
2022-08-03T05:30:27.223Z,22.42
2022-08-03T05:32:54.553Z,22.58
2022-08-03T05:36:02.813Z,23.36
2022-08-03T05:38:13.266Z,23.93
2022-08-03T05:40:57.371Z,23.97
2022-08-03T05:43:26.131Z,24.78
2022-08-03T05:46:11.696Z,25.02
2022-08-03T05:48:40.579Z,25.42
2022-08-03T05:51:11.406Z,25.70
2022-08-03T05:53:40.406Z,25.75
2022-08-03T05:56:13.786Z,25.60
2022-08-03T05:58:43.037Z,26.42
2022-08-03T06:01:11.034Z,26.24
2022-08-03T06:03:39.057Z,26.00
2022-08-03T06:06:07.238Z,25.85
2022-08-03T06:08:35.799Z,25.76
2022-08-03T06:11:04.035Z,25.51
2022-08-03T06:13:33.491Z,25.83
2022-08-03T06:16:01.501Z,26.61
2022-08-03T06:18:29.520Z,27.31
2022-08-03T06:20:57.527Z,27.29
2022-08-03T06:23:53.290Z,26.72
2022-08-03T06:26:13.740Z,27.04
2022-08-03T06:28:52.357Z,26.80
2022-08-03T06:31:22.850Z,26.93
2022-08-03T06:34:33.936Z,27.11
2022-08-03T06:36:39.065Z,27.08
2022-08-03T06:39:08.254Z,27.07
2022-08-03T06:41:37.494Z,27.14
2022-08-03T06:44:07.746Z,26.90
2022-08-03T06:46:36.411Z,26.91
2022-08-03T06:49:04.457Z,26.78
2022-08-03T06:52:03.966Z,27.12
2022-08-03T06:54:22.217Z,26.91
2022-08-03T06:56:50.206Z,27.38
2022-08-03T07:00:09.451Z,27.39
2022-08-03T07:02:07.701Z,27.15
2022-08-03T07:04:35.713Z,27.63
2022-08-03T07:07:03.723Z,27.24
2022-08-03T07:09:32.077Z,27.58
2022-08-03T07:12:02.349Z,27.52
2022-08-03T07:14:31.692Z,27.53
2022-08-03T07:16:59.653Z,27.77
2022-08-03T07:19:27.643Z,27.85
2022-08-03T07:21:55.610Z,27.92
2022-08-03T07:24:30.617Z,28.31
2022-08-03T07:26:58.832Z,28.36
2022-08-03T07:29:26.809Z,28.00
2022-08-03T07:31:56.181Z,27.70
2022-08-03T07:34:24.183Z,27.49
2022-08-03T07:36:52.181Z,27.37
2022-08-03T07:39:20.202Z,27.72
2022-08-03T07:41:50.550Z,27.51
2022-08-03T07:44:18.657Z,27.95
2022-08-03T07:46:46.670Z,27.81
2022-08-03T07:49:16.048Z,27.61
2022-08-03T07:51:44.111Z,28.20
2022-08-03T07:54:12.075Z,27.78
2022-08-03T07:56:40.631Z,27.72
2022-08-03T07:59:08.571Z,28.26
2022-08-03T08:01:38.113Z,27.89
2022-08-03T08:04:06.303Z,27.59
2022-08-03T08:06:35.653Z,27.72
2022-08-03T08:09:03.622Z,28.14
2022-08-03T08:11:31.606Z,28.64
2022-08-03T08:14:02.736Z,28.85
2022-08-03T08:16:30.722Z,29.39
2022-08-03T08:18:58.717Z,28.99
2022-08-03T08:21:26.740Z,29.19
2022-08-03T08:24:18.277Z,29.47
2022-08-03T08:26:48.492Z,29.92
2022-08-03T08:29:16.458Z,29.66
2022-08-03T08:31:44.378Z,29.10
2022-08-03T08:34:12.305Z,29.45
2022-08-03T08:36:40.288Z,29.22
2022-08-03T08:39:08.446Z,29.70
2022-08-03T08:41:37.839Z,30.10
2022-08-03T08:44:13.720Z,30.24
2022-08-03T08:46:41.727Z,29.87
2022-08-03T08:49:10.976Z,29.85
2022-08-03T08:51:54.569Z,28.98
2022-08-03T08:54:28.811Z,29.73
2022-08-03T08:56:59.342Z,29.17
2022-08-03T08:59:27.930Z,28.60
2022-08-03T09:02:16.150Z,28.41
2022-08-03T09:04:45.625Z,28.93
2022-08-03T09:07:20.081Z,29.35
2022-08-03T09:10:11.194Z,29.09
2022-08-03T09:12:44.189Z,29.03
2022-08-03T09:15:23.288Z,28.88
2022-08-03T09:17:52.455Z,28.32
2022-08-03T09:20:21.948Z,28.23
2022-08-03T09:22:57.951Z,28.23
2022-08-03T09:25:33.853Z,28.31
2022-08-03T09:28:11.196Z,28.39
2022-08-03T09:30:40.540Z,28.42
2022-08-03T09:33:10.023Z,28.82
2022-08-03T09:35:53.577Z,28.79
2022-08-03T09:38:24.173Z,28.48
2022-08-03T09:40:55.916Z,29.23
2022-08-03T09:43:28.572Z,29.63
2022-08-03T09:46:04.116Z,29.45
2022-08-03T09:48:34.847Z,29.01
2022-08-03T09:51:13.239Z,28.64
2022-08-03T09:53:59.341Z,28.91
2022-08-03T09:56:42.581Z,28.78
2022-08-03T09:59:12.390Z,29.03
2022-08-03T10:01:42.619Z,28.83
2022-08-03T10:04:17.956Z,28.99
2022-08-03T10:06:46.579Z,28.99
2022-08-03T10:09:16.485Z,29.29
2022-08-03T10:11:46.920Z,29.73
2022-08-03T10:14:19.989Z,29.36
2022-08-03T10:16:49.003Z,30.38
2022-08-03T10:19:17.525Z,30.20
2022-08-03T10:21:50.763Z,29.22
2022-08-03T10:24:23.814Z,28.85
2022-08-03T10:26:52.166Z,28.82
2022-08-03T10:29:24.660Z,28.79
2022-08-03T10:31:57.414Z,29.34
2022-08-03T10:34:28.042Z,30.03
2022-08-03T10:36:58.362Z,29.10
2022-08-03T10:39:29.883Z,29.70
2022-08-03T10:41:59.976Z,29.97
2022-08-03T10:44:34.858Z,29.37
2022-08-03T10:47:02.947Z,29.59
2022-08-03T10:49:34.972Z,29.42
2022-08-03T10:52:12.785Z,29.39
2022-08-03T10:54:56.813Z,29.70
2022-08-03T10:57:50.143Z,30.65
2022-08-03T11:00:22.825Z,30.39
2022-08-03T11:03:10.967Z,30.77
2022-08-03T11:05:41.257Z,30.72
2022-08-03T11:08:29.029Z,31.11
2022-08-03T11:10:59.758Z,31.40
2022-08-03T11:13:31.820Z,31.82
2022-08-03T11:16:06.139Z,31.69
2022-08-03T11:18:35.173Z,31.34
2022-08-03T11:21:04.161Z,30.50
2022-08-03T11:24:03.510Z,30.24
2022-08-03T11:26:34.555Z,29.84
2022-08-03T11:29:29.849Z,29.62
2022-08-03T11:31:59.637Z,29.40
2022-08-03T11:34:27.655Z,29.85
2022-08-03T11:37:21.863Z,29.54
2022-08-03T11:39:53.004Z,29.65
2022-08-03T11:42:45.139Z,30.10
2022-08-03T11:45:13.114Z,29.94
2022-08-03T11:47:51.187Z,30.04
2022-08-03T11:50:19.997Z,30.02
2022-08-03T11:52:48.553Z,30.03
2022-08-03T11:55:20.413Z,30.10
2022-08-03T11:59:01.235Z,30.14
2022-08-03T12:00:37.020Z,30.30
2022-08-03T12:03:09.103Z,30.23
2022-08-03T12:05:39.102Z,30.08
2022-08-03T12:08:08.119Z,30.41
2022-08-03T12:10:36.483Z,30.08
2022-08-03T12:14:44.260Z,30.12
2022-08-03T12:15:59.104Z,29.77
2022-08-03T12:18:28.478Z,30.35
2022-08-03T12:21:06.574Z,29.92
2022-08-03T12:23:37.695Z,30.08
2022-08-03T12:26:07.655Z,30.04
2022-08-03T12:28:38.396Z,29.74
2022-08-03T12:31:07.679Z,29.65
2022-08-03T12:33:58.882Z,30.05
2022-08-03T12:36:27.825Z,30.36
2022-08-03T12:38:57.822Z,30.22
2022-08-03T12:41:30.989Z,31.07
2022-08-03T12:43:58.945Z,31.52
2022-08-03T12:46:32.047Z,31.89
2022-08-03T12:49:03.899Z,31.07
2022-08-03T12:51:35.599Z,31.02
2022-08-03T12:54:04.358Z,31.54
2022-08-03T12:56:32.509Z,31.34
2022-08-03T12:59:00.519Z,31.67
2022-08-03T13:01:29.796Z,31.82
2022-08-03T13:04:01.517Z,31.85
2022-08-03T13:06:29.502Z,30.91
2022-08-03T13:09:06.089Z,30.76
2022-08-03T13:11:57.884Z,30.63
2022-08-03T13:14:23.687Z,30.92
2022-08-03T13:16:52.174Z,31.01
2022-08-03T13:19:21.557Z,31.57
2022-08-03T13:21:53.906Z,31.43
2022-08-03T13:24:32.882Z,31.35
2022-08-03T13:27:00.897Z,31.56
2022-08-03T13:29:48.938Z,30.93
2022-08-03T13:32:16.872Z,30.40
2022-08-03T13:34:46.281Z,30.29
2022-08-03T13:37:14.469Z,30.36
2022-08-03T13:39:57.739Z,30.23
2022-08-03T13:42:27.034Z,30.40
2022-08-03T13:44:54.949Z,30.77
2022-08-03T13:47:23.142Z,30.91
2022-08-03T13:49:54.258Z,31.38
2022-08-03T13:52:31.095Z,31.22
2022-08-03T13:54:59.954Z,31.22
2022-08-03T13:58:06.505Z,31.33
2022-08-03T14:00:27.497Z,31.30
2022-08-03T14:03:03.828Z,31.18
2022-08-03T14:05:35.747Z,30.78
2022-08-03T14:08:05.688Z,30.14
2022-08-03T14:10:35.289Z,29.94
2022-08-03T14:13:03.370Z,29.69
2022-08-03T14:15:31.451Z,29.77
2022-08-03T14:17:59.459Z,29.61
2022-08-03T14:20:38.481Z,29.62
2022-08-03T14:23:17.107Z,29.39
2022-08-03T14:25:51.774Z,29.43
2022-08-03T14:28:22.578Z,29.01
2022-08-03T14:30:50.951Z,29.02
2022-08-03T14:33:18.927Z,29.20
2022-08-03T14:35:46.984Z,29.43
2022-08-03T14:38:16.683Z,29.48
2022-08-03T14:40:44.763Z,29.32
2022-08-03T14:43:12.852Z,29.37
2022-08-03T14:45:40.957Z,29.40
2022-08-03T14:50:31.699Z,29.33
2022-08-03T14:50:57.151Z,29.29
2022-08-03T14:53:26.479Z,29.28
2022-08-03T14:55:54.417Z,29.25
2022-08-03T14:58:23.450Z,29.21
2022-08-03T15:00:52.369Z,29.21
2022-08-03T15:03:23.711Z,29.20
2022-08-03T15:05:52.882Z,29.12
2022-08-03T15:08:22.601Z,29.13
2022-08-03T15:10:52.209Z,29.19
2022-08-03T15:13:20.732Z,29.20
2022-08-03T15:15:49.610Z,29.25
2022-08-03T15:18:17.575Z,29.29
2022-08-03T15:20:46.981Z,29.07
2022-08-03T15:23:15.796Z,28.85
2022-08-03T15:26:28.153Z,28.82
2022-08-03T15:28:33.810Z,28.73
2022-08-03T15:31:01.890Z,28.85
2022-08-03T15:33:30.334Z,28.87
2022-08-03T15:35:59.954Z,28.93
2022-08-03T15:38:27.955Z,28.80
2022-08-03T15:40:56.429Z,28.76
2022-08-03T15:43:25.029Z,28.61
2022-08-03T15:46:26.443Z,28.57
2022-08-03T15:48:42.785Z,28.51
2022-08-03T15:51:11.401Z,28.68
2022-08-03T15:53:39.703Z,28.52
2022-08-03T15:56:13.293Z,28.42
2022-08-03T15:59:09.809Z,28.46
2022-08-03T16:01:34.376Z,28.45
2022-08-03T16:04:02.406Z,28.37
2022-08-03T16:06:34.942Z,28.37
2022-08-03T16:09:05.576Z,28.33
2022-08-03T16:11:52.418Z,28.30
2022-08-03T16:14:34.406Z,28.38
2022-08-03T16:17:07.458Z,28.43
2022-08-03T16:19:35.783Z,28.49
2022-08-03T16:22:03.850Z,28.31
2022-08-03T16:24:32.348Z,28.05
2022-08-03T16:27:00.649Z,28.12
2022-08-03T16:29:29.463Z,28.03
2022-08-03T16:31:57.458Z,28.04
2022-08-03T16:34:26.965Z,27.89
2022-08-03T16:36:55.705Z,27.97
2022-08-03T16:39:23.712Z,27.94
2022-08-03T16:41:53.665Z,27.83
2022-08-03T16:44:30.125Z,27.71
2022-08-03T16:46:58.306Z,27.77
2022-08-03T16:49:55.031Z,27.62
2022-08-03T16:52:16.678Z,27.52
2022-08-03T16:54:50.736Z,27.30
2022-08-03T16:57:59.263Z,27.28
2022-08-03T17:00:11.385Z,27.24
2022-08-03T17:02:39.944Z,27.19
2022-08-03T17:05:17.567Z,27.04
2022-08-03T17:07:50.555Z,26.91
2022-08-03T17:10:27.025Z,26.95
2022-08-03T17:12:55.445Z,26.81
2022-08-03T17:15:38.342Z,26.49
2022-08-03T17:18:15.149Z,26.40
2022-08-03T17:20:46.919Z,26.42
2022-08-03T17:23:38.182Z,26.33
2022-08-03T17:26:11.583Z,26.29
2022-08-03T17:28:50.124Z,25.84
2022-08-03T17:31:31.380Z,26.07
2022-08-03T17:34:01.993Z,25.86
2022-08-03T17:37:02.767Z,25.72
2022-08-03T17:39:41.661Z,25.53
2022-08-03T17:42:38.936Z,25.26
2022-08-03T17:45:01.638Z,24.93
2022-08-03T17:47:41.885Z,24.85
2022-08-03T17:50:24.211Z,24.60
2022-08-03T17:53:01.638Z,24.44
2022-08-03T17:55:54.824Z,24.08
2022-08-03T17:58:34.225Z,24.00
2022-08-03T18:02:00.038Z,23.75
2022-08-03T18:04:11.999Z,23.66
2022-08-03T18:06:55.821Z,23.58
2022-08-03T18:10:06.831Z,23.32
2022-08-03T18:12:25.053Z,23.10
2022-08-03T18:15:01.180Z,23.07
2022-08-03T18:17:55.377Z,23.06
2022-08-03T18:20:32.145Z,22.76
2022-08-03T18:23:04.879Z,22.64
2022-08-03T18:25:43.062Z,22.58
2022-08-03T18:28:15.632Z,22.25
2022-08-03T18:30:54.699Z,22.26
2022-08-03T18:34:16.746Z,21.95
2022-08-03T18:36:17.369Z,21.93
2022-08-03T18:38:46.776Z,21.84
2022-08-03T18:41:31.848Z,21.66
2022-08-03T18:44:09.019Z,21.51
2022-08-03T18:47:07.448Z,21.32
2022-08-03T18:49:52.620Z,21.08
2022-08-03T18:52:27.890Z,20.99
2022-08-03T18:55:09.461Z,20.96
2022-08-03T18:57:51.281Z,20.92
2022-08-03T19:00:23.919Z,20.63
2022-08-03T19:02:58.786Z,20.53
2022-08-03T19:05:53.794Z,20.36
2022-08-03T19:08:18.098Z,20.27
2022-08-03T19:10:57.852Z,20.04
2022-08-03T19:13:36.270Z,19.90
2022-08-03T19:16:08.614Z,19.85
2022-08-03T19:18:37.533Z,19.86
2022-08-03T19:21:15.789Z,19.81
2022-08-03T19:23:45.473Z,19.73
2022-08-03T19:26:30.588Z,19.68
2022-08-03T19:29:01.092Z,19.51
2022-08-03T19:31:31.033Z,19.41
2022-08-03T19:34:00.392Z,19.40
2022-08-03T19:36:29.189Z,19.17
2022-08-03T19:38:58.408Z,19.01
2022-08-03T19:41:31.223Z,18.94
2022-08-03T19:44:20.093Z,18.86
2022-08-03T19:46:54.114Z,18.82
2022-08-03T19:49:26.052Z,18.77
2022-08-03T19:52:16.008Z,18.69
2022-08-03T19:54:53.047Z,18.59
2022-08-03T19:57:24.761Z,18.53
2022-08-03T19:59:55.106Z,18.32
2022-08-03T20:02:25.993Z,18.21
2022-08-03T20:04:56.363Z,18.11
2022-08-03T20:07:25.331Z,17.97
2022-08-03T20:09:56.952Z,17.90
2022-08-03T20:12:27.417Z,17.95
2022-08-03T20:14:58.640Z,17.88
2022-08-03T20:17:54.026Z,17.91
2022-08-03T20:20:15.513Z,17.80
2022-08-03T20:22:47.737Z,17.68
2022-08-03T20:25:20.902Z,17.64
2022-08-03T20:28:03.627Z,17.57
2022-08-03T20:30:37.936Z,17.52
2022-08-03T20:33:07.466Z,17.40
2022-08-03T20:35:35.435Z,17.39
2022-08-03T20:38:04.584Z,17.32
2022-08-03T20:40:32.806Z,17.18
2022-08-03T20:43:01.571Z,17.14
2022-08-03T20:45:58.976Z,17.14
2022-08-03T20:48:22.059Z,16.96
2022-08-03T20:50:50.563Z,16.89
2022-08-03T20:56:07.440Z,17.02
2022-08-03T20:58:36.511Z,17.51
2022-08-03T21:01:04.909Z,17.26
2022-08-03T21:03:40.574Z,17.04
2022-08-03T21:06:11.604Z,16.90
2022-08-03T21:08:46.842Z,16.63
2022-08-03T21:11:18.607Z,16.64
2022-08-03T21:13:14.115Z,16.94
2022-08-03T21:13:51.659Z,16.58
2022-08-03T21:16:21.538Z,16.61
2022-08-03T21:18:52.733Z,16.48
2022-08-03T21:21:24.289Z,16.47
2022-08-03T21:23:53.935Z,16.51
2022-08-03T21:26:23.835Z,16.46
2022-08-03T21:28:53.498Z,16.44
2022-08-03T21:31:25.378Z,16.38
2022-08-03T21:33:57.650Z,16.32
2022-08-03T21:36:27.345Z,16.24
2022-08-03T21:38:56.989Z,16.18
2022-08-03T21:41:26.654Z,16.12
2022-08-03T21:43:54.644Z,16.10
2022-08-03T21:46:23.706Z,16.05
2022-08-03T21:48:56.804Z,16.04
2022-08-03T21:51:44.729Z,15.95
2022-08-03T21:54:13.541Z,15.96
2022-08-03T21:56:43.007Z,15.90
2022-08-03T21:59:17.148Z,15.75
2022-08-03T22:01:49.207Z,15.82
2022-08-03T22:04:50.650Z,15.41
2022-08-03T22:07:08.559Z,15.51
2022-08-03T22:09:36.612Z,15.49
2022-08-03T22:12:05.674Z,15.53
2022-08-03T22:14:34.075Z,15.47
2022-08-03T22:17:03.419Z,15.45
2022-08-03T22:19:35.769Z,15.37
2022-08-03T22:22:06.121Z,15.42
2022-08-03T22:24:36.614Z,15.33
2022-08-03T22:27:22.708Z,15.36
2022-08-03T22:29:51.650Z,15.49
2022-08-03T22:32:19.695Z,15.54
2022-08-03T22:34:50.109Z,15.59
2022-08-03T22:37:20.778Z,15.50
2022-08-03T22:39:50.779Z,15.44
2022-08-03T22:42:20.802Z,15.39
2022-08-03T22:44:50.952Z,15.34
2022-08-03T22:47:22.627Z,15.26
2022-08-03T22:50:31.899Z,15.13
2022-08-03T22:52:45.540Z,15.12
2022-08-03T22:55:18.904Z,15.04
2022-08-03T22:57:55.896Z,15.10
2022-08-03T23:00:24.734Z,15.18
2022-08-03T23:02:55.190Z,15.16
2022-08-03T23:06:02.189Z,15.03
2022-08-03T23:08:16.065Z,15.05
2022-08-03T23:10:47.026Z,15.06
2022-08-03T23:13:15.978Z,14.93
2022-08-03T23:15:45.894Z,15.00
2022-08-03T23:18:14.016Z,15.07
2022-08-03T23:20:44.706Z,15.03
2022-08-03T23:23:13.798Z,14.90
2022-08-03T23:25:41.953Z,15.27
2022-08-03T23:28:10.432Z,15.11
2022-08-03T23:30:38.676Z,15.01
2022-08-03T23:33:07.833Z,15.00
2022-08-03T23:36:28.726Z,15.04
2022-08-03T23:38:47.546Z,14.95
2022-08-03T23:41:16.204Z,14.90
2022-08-03T23:43:53.877Z,14.80
2022-08-03T23:46:23.327Z,14.75
2022-08-03T23:48:51.886Z,14.65
2022-08-03T23:51:28.844Z,14.60
2022-08-03T23:54:02.493Z,14.83
2022-08-03T23:56:35.332Z,14.85
2022-08-03T23:59:09.612Z,14.70
